Time;durP1;ratioP1;P1;durP2;ratioP2;P2;SDS_P1;SDS_P2;PMS_P1;PMS_P2;Temp;Humidity;BMP_temperature;BMP_pressure;BME280_temperature;BME280_humidity;BME280_pressure;Samples;Min_cycle;Max_cycle;Signal;HPM_P1;HPM_P2
2022/05/25 00:02:04;;;;;;;6.35;4.35;;;15.50;69.90;;;11.63;88.05;95255.53;5037237;28;20025;-57
2022/05/25 00:04:34;;;;;;;6.60;4.53;;;15.50;70.00;;;11.61;87.90;95260.34;5037238;28;20281;-57
2022/05/25 00:07:03;;;;;;;6.30;4.35;;;15.50;70.10;;;11.61;87.69;95267.56;5036986;28;20033;-57
2022/05/25 00:09:42;;;;;;;8.57;4.97;;;15.50;70.20;;;11.60;88.05;95265.97;5054892;28;20079;-57
2022/05/25 00:12:21;;;;;;;8.02;4.32;;;15.50;70.40;;;11.58;88.09;95267.03;5054929;28;20434;-55
2022/05/25 00:14:48;;;;;;;10.95;4.90;;;15.50;70.40;;;11.57;88.37;95264.66;5037243;28;20087;-56
2022/05/25 00:17:23;;;;;;;8.63;5.30;;;15.40;70.20;;;11.55;88.26;95274.78;5037087;28;20025;-54
2022/05/25 00:20:01;;;;;;;5.20;4.60;;;15.50;70.60;;;11.53;88.66;95269.75;5054856;28;20064;-53
2022/05/25 00:22:49;;;;;;;7.95;5.10;;;15.40;70.30;;;11.52;88.94;95276.13;5054680;28;20040;-55
2022/05/25 00:25:25;;;;;;;7.47;4.57;;;15.50;70.60;;;11.51;88.64;95279.09;5054716;28;20384;-56
2022/05/25 00:27:51;;;;;;;7.18;4.82;;;15.40;70.50;;;11.48;88.49;95271.66;5053484;28;20492;-55
2022/05/25 00:30:18;;;;;;;15.90;5.68;;;15.40;70.40;;;11.50;88.62;95277.47;5036769;28;20037;-56
2022/05/25 00:32:47;;;;;;;10.32;5.00;;;15.40;70.50;;;11.44;88.63;95270.59;5053006;28;20502;-57
2022/05/25 00:35:19;;;;;;;8.02;5.30;;;15.40;70.70;;;11.46;88.68;95289.78;5020005;28;20033;-57
2022/05/25 00:37:51;;;;;;;7.68;5.03;;;15.40;70.80;;;11.46;88.64;95289.78;5036759;28;20484;-55
2022/05/25 00:40:47;;;;;;;7.43;4.90;;;15.40;70.70;;;11.45;88.73;95283.66;5036648;28;20454;-57
2022/05/25 00:43:19;;;;;;;7.47;5.30;;;15.40;70.90;;;11.46;88.75;95287.13;5038271;28;20029;-57
2022/05/25 00:46:04;;;;;;;12.30;5.22;;;15.40;70.90;;;11.44;88.53;95292.75;5016382;28;20048;-56
2022/05/25 00:48:37;;;;;;;7.68;5.50;;;15.40;71.00;;;11.45;88.84;95289.00;5017105;28;20030;-57
2022/05/25 00:51:15;;;;;;;8.90;5.57;;;15.30;70.90;;;11.45;88.50;95294.31;5034320;28;20127;-57
2022/05/25 00:53:51;;;;;;;8.93;6.10;;;15.30;71.00;;;11.40;88.54;95286.34;5033809;28;20029;-57
2022/05/25 00:56:23;;;;;;;7.95;5.45;;;15.30;71.10;;;11.41;88.44;95287.97;5016712;28;20033;-55
2022/05/25 00:59:41;;;;;;;9.55;5.97;;;15.40;71.20;;;11.43;88.77;95288.47;5016657;28;20108;-56
2022/05/25 01:02:14;;;;;;;10.68;6.15;;;15.40;71.30;;;11.43;88.62;95290.34;5013930;28;20117;-57
2022/05/25 01:04:39;;;;;;;6.47;5.82;;;15.30;71.10;;;11.43;88.63;95290.34;5012924;28;20053;-55
2022/05/25 01:07:46;;;;;;;9.50;6.05;;;15.30;70.90;;;11.44;88.57;95300.75;5014168;28;20092;-50
2022/05/25 01:10:16;;;;;;;9.93;6.15;;;15.40;71.30;;;11.45;89.22;95309.53;5014225;28;20030;-57
2022/05/25 01:13:03;;;;;;;9.52;6.57;;;15.40;71.30;;;11.45;89.10;95297.00;5014074;28;20030;-58
2022/05/25 01:16:18;;;;;;;9.05;5.90;;;15.40;71.50;;;11.47;89.17;95302.03;5014192;28;20084;-57
2022/05/25 01:19:29;;;;;;;10.90;6.32;;;15.40;71.60;;;11.46;89.14;95301.25;5014129;28;20113;-56
2022/05/25 01:22:50;;;;;;;10.90;6.57;;;15.30;71.40;;;11.46;88.92;95305.78;5013948;28;20044;-54
2022/05/25 01:25:43;;;;;;;8.82;6.50;;;15.40;71.50;;;11.46;88.81;95311.91;4996067;28;20045;-57
2022/05/25 01:28:27;;;;;;;10.27;6.93;;;15.40;71.50;;;11.46;88.70;95314.59;5013855;28;20397;-57
2022/05/25 01:30:58;;;;;;;7.75;6.72;;;15.30;71.50;;;11.45;89.59;95307.66;5012618;28;20112;-58
2022/05/25 01:33:52;;;;;;;14.07;6.90;;;15.40;71.60;;;11.47;89.41;95312.72;5012324;28;20037;-58
2022/05/25 01:36:52;;;;;;;14.15;7.03;;;15.40;71.80;;;11.46;90.27;95317.25;5012341;28;20392;-58
2022/05/25 01:39:31;;;;;;;8.60;7.00;;;15.30;71.90;;;11.47;89.96;95316.19;4999768;28;20034;-57
2022/05/25 01:42:16;;;;;;;10.80;6.50;;;15.40;72.00;;;11.50;89.99;95317.50;5012418;28;20448;-58
2022/05/25 01:45:03;;;;;;;12.57;6.88;;;15.30;72.60;;;11.51;89.71;95321.78;5001034;28;20401;-57
2022/05/25 01:47:32;;;;;;;11.18;7.03;;;15.30;72.00;;;11.50;89.61;95310.31;5032842;28;20033;-58
2022/05/25 01:50:33;;;;;;;14.93;7.22;;;15.30;71.90;;;11.50;89.81;95310.31;5015395;28;20026;-56
2022/05/25 01:53:04;;;;;;;11.05;7.30;;;15.30;72.00;;;11.51;90.03;95322.56;5020038;28;20115;-56
2022/05/25 01:55:49;;;;;;;10.88;7.55;;;15.40;72.10;;;11.52;89.82;95328.69;5015508;28;20508;-58
2022/05/25 01:58:23;;;;;;;9.15;6.78;;;15.40;72.30;;;11.52;90.15;95321.47;5015579;28;20053;-52
2022/05/25 02:00:58;;;;;;;9.98;7.65;;;15.40;72.30;;;11.52;90.09;95329.47;4998443;28;20075;-56
2022/05/25 02:07:04;;;;;;;16.02;7.90;;;15.40;72.30;;;11.52;90.02;95326.81;5032856;28;20083;-53
2022/05/25 02:10:07;;;;;;;13.73;7.45;;;15.40;72.40;;;11.53;90.22;95331.09;5032733;28;20033;-55
2022/05/25 02:13:28;;;;;;;11.23;7.87;;;15.40;72.30;;;11.53;90.16;95333.75;5032595;28;20037;-57
2022/05/25 02:16:30;;;;;;;13.55;7.65;;;15.40;72.30;;;11.53;90.21;95340.94;5017451;28;20034;-58
2022/05/25 02:19:19;;;;;;;14.55;7.82;;;15.40;72.40;;;11.50;90.74;95331.66;5032532;28;20127;-56
2022/05/25 02:21:51;;;;;;;9.05;7.38;;;15.40;72.40;;;11.54;90.58;95339.88;5015405;28;20391;-53
2022/05/25 02:24:47;;;;;;;12.82;8.13;;;15.30;72.30;;;11.54;90.75;95332.69;5014810;28;20033;-56
2022/05/25 02:27:40;;;;;;;11.93;8.07;;;15.30;72.70;;;11.56;90.66;95337.72;5025703;28;20049;-54
2022/05/25 02:30:24;;;;;;;13.20;7.93;;;15.30;72.60;;;11.54;90.71;95335.34;5032259;28;20056;-58
2022/05/25 02:33:14;;;;;;;14.63;8.20;;;15.30;72.60;;;11.54;90.53;95335.34;5016450;28;20120;-57
2022/05/25 02:35:48;;;;;;;14.07;7.88;;;15.40;72.80;;;11.53;90.65;95336.44;5033003;28;20504;-58
2022/05/25 02:38:20;;;;;;;13.55;7.50;;;15.30;72.80;;;11.53;90.74;95336.44;5014658;28;20030;-55
2022/05/25 02:40:46;;;;;;;13.43;8.10;;;15.30;72.90;;;11.51;90.80;95340.44;5014727;28;20029;-57
2022/05/25 02:43:18;;;;;;;14.07;8.68;;;15.30;72.80;;;11.51;90.68;95341.22;5014443;28;20032;-56
2022/05/25 02:45:46;;;;;;;13.10;8.35;;;15.30;73.00;;;11.49;90.71;95339.91;5075013;22;20494;-46
2022/05/25 02:48:15;;;;;;;15.35;8.18;;;15.30;72.90;;;11.49;90.90;95340.69;5073980;28;20039;-49
2022/05/25 02:50:46;;;;;;;15.35;8.45;;;15.30;73.00;;;11.50;91.07;95333.50;5092827;28;20024;-47
2022/05/25 02:53:15;;;;;;;15.80;8.98;;;15.30;73.20;;;11.49;91.36;95342.56;5093120;28;20501;-46
2022/05/25 02:55:47;;;;;;;15.77;9.63;;;15.30;73.10;;;11.49;90.98;95340.69;5065871;28;20219;-46
2022/05/25 02:58:18;;;;;;;13.52;8.95;;;15.30;73.10;;;11.46;91.37;95343.91;5073209;28;20033;-46
2022/05/25 03:00:45;;;;;;;14.73;10.43;;;15.30;73.30;;;11.45;91.18;95347.66;5072797;28;20258;-47
2022/05/25 03:03:16;;;;;;;16.20;9.35;;;15.30;73.30;;;11.46;91.25;95353.78;5072794;28;20032;-48
2022/05/25 03:05:45;;;;;;;14.15;9.30;;;15.30;73.50;;;11.44;91.10;95350.59;5072682;28;20483;-47
2022/05/25 03:08:11;;;;;;;14.90;8.80;;;15.30;73.50;;;11.41;91.17;95348.50;5072836;28;20399;-46
2022/05/25 03:10:47;;;;;;;12.95;8.77;;;15.20;73.40;;;11.43;91.08;95354.34;5038281;28;20035;-46
2022/05/25 03:13:15;;;;;;;18.90;8.98;;;15.30;73.60;;;11.41;91.25;95359.19;5074001;28;20031;-47
2022/05/25 03:15:51;;;;;;;15.05;9.98;;;15.20;73.50;;;11.41;91.26;95354.63;5076462;28;20033;-47
2022/05/25 03:18:17;;;;;;;14.82;8.45;;;15.20;73.60;;;11.41;91.20;95361.84;5058845;28;20402;-46
2022/05/25 03:20:50;;;;;;;15.95;8.90;;;15.20;73.50;;;11.39;90.96;95366.66;5076773;28;20029;-46
2022/05/25 03:23:19;;;;;;;18.17;9.23;;;15.20;73.60;;;11.34;91.07;95362.94;5076360;28;20039;-45
2022/05/25 03:25:46;;;;;;;14.75;8.65;;;15.20;73.50;;;11.33;91.22;95358.66;5041944;28;20101;-46
2022/05/25 03:28:16;;;;;;;17.35;9.18;;;15.20;73.50;;;11.34;91.21;95364.78;5058741;28;20039;-50
2022/05/25 03:30:47;;;;;;;14.23;9.00;;;15.20;73.60;;;11.32;90.87;95365.06;5058824;28;20066;-45
2022/05/25 03:33:16;;;;;;;15.57;9.02;;;15.20;73.60;;;11.29;91.22;95360.28;5076708;28;20379;-48
2022/05/25 03:35:48;;;;;;;14.77;8.73;;;15.20;73.60;;;11.32;91.04;95359.75;5058339;28;20035;-48
2022/05/25 03:38:16;;;;;;;14.15;9.25;;;15.20;73.70;;;11.28;91.08;95366.69;5076183;28;20021;-44
2022/05/25 03:40:49;;;;;;;14.18;8.77;;;15.20;73.60;;;11.25;91.26;95371.75;5075689;28;20036;-49
2022/05/25 03:43:18;;;;;;;16.65;8.50;;;15.20;73.80;;;11.25;91.13;95379.75;5058566;28;20031;-46
2022/05/25 03:46:10;;;;;;;13.35;8.38;;;15.20;73.70;;;11.24;91.30;95386.97;5058361;28;20080;-49
2022/05/25 03:48:35;;;;;;;14.30;8.82;;;15.20;73.80;;;11.25;91.19;95391.25;5076205;28;20032;-48
2022/05/25 03:51:07;;;;;;;13.23;8.45;;;15.10;73.60;;;11.26;91.04;95397.38;5076281;28;20082;-47
2022/05/25 03:53:42;;;;;;;11.13;7.90;;;15.20;73.90;;;11.25;91.12;95393.91;5050295;28;20065;-51
2022/05/25 03:56:08;;;;;;;12.70;8.30;;;15.20;73.90;;;11.25;91.46;95401.09;5056160;28;20134;-47
2022/05/25 03:58:37;;;;;;;16.38;8.38;;;15.10;73.70;;;11.24;91.36;95400.28;5055895;28;20031;-48
2022/05/25 04:01:12;;;;;;;12.32;8.13;;;15.20;73.80;;;11.24;91.23;95396.84;5054820;28;20039;-46
2022/05/25 04:03:44;;;;;;;17.00;9.02;;;15.20;73.90;;;11.23;91.46;95409.38;5076214;28;20039;-46
2022/05/25 04:06:09;;;;;;;14.50;8.77;;;15.20;74.00;;;11.23;91.23;95409.38;5076049;28;20034;-46
2022/05/25 04:08:35;;;;;;;14.15;9.07;;;15.20;73.80;;;11.23;91.29;95412.03;5075924;28;20024;-46
2022/05/25 04:11:01;;;;;;;16.45;9.60;;;15.20;73.80;;;11.24;91.41;95420.81;5075851;28;20050;-46
2022/05/25 04:13:27;;;;;;;14.88;9.13;;;15.20;73.80;;;11.22;91.34;95429.13;5075481;28;20086;-47
2022/05/25 04:15:59;;;;;;;14.45;8.38;;;15.20;73.80;;;11.23;91.21;95428.03;5057618;28;20448;-46
2022/05/25 04:18:27;;;;;;;14.02;8.10;;;15.20;73.80;;;11.21;91.58;95422.16;5074667;28;20052;-47
2022/05/25 04:20:53;;;;;;;12.43;7.88;;;15.20;73.80;;;11.23;91.27;95427.25;5075521;28;20035;-46
2022/05/25 04:23:20;;;;;;;10.32;7.40;;;15.20;73.80;;;11.25;91.54;95439.22;5040555;28;20127;-46
2022/05/25 04:25:46;;;;;;;13.43;8.15;;;15.20;73.90;;;11.25;91.30;95439.22;5074041;28;20033;-45
2022/05/25 04:28:14;;;;;;;16.17;8.20;;;15.20;73.80;;;11.27;91.15;95441.63;5075456;28;20379;-46
2022/05/25 04:30:43;;;;;;;14.00;8.45;;;15.30;73.90;;;11.27;91.03;95447.75;5075197;28;20411;-51
2022/05/25 04:33:12;;;;;;;10.38;7.70;;;15.30;73.80;;;11.27;91.12;95450.41;5075173;28;20422;-47
2022/05/25 04:35:38;;;;;;;12.45;7.43;;;15.30;73.80;;;11.24;91.03;95448.28;5040765;28;20016;-47
2022/05/25 04:38:16;;;;;;;11.85;8.10;;;15.30;73.80;;;11.27;91.24;95445.06;5057100;28;20044;-46
2022/05/25 04:40:48;;;;;;;13.10;7.65;;;15.30;73.90;;;11.28;91.31;95444.03;5057279;28;20413;-46
2022/05/25 04:43:21;;;;;;;13.95;7.78;;;15.30;73.80;;;11.29;91.21;95448.28;5057440;28;20040;-45
2022/05/25 04:45:54;;;;;;;10.82;7.38;;;15.30;73.70;;;11.30;91.18;95457.06;5074832;28;20040;-46
2022/05/25 04:48:23;;;;;;;13.35;8.75;;;15.40;73.80;;;11.30;91.31;95462.41;5075083;28;20478;-46
2022/05/25 04:50:51;;;;;;;18.27;8.57;;;15.40;73.60;;;11.35;91.12;95470.41;5057086;28;20032;-47
2022/05/25 04:53:22;;;;;;;12.63;8.45;;;15.40;73.60;;;11.37;91.08;95470.13;5057255;28;20036;-45
2022/05/25 04:58:53;;;;;;;15.68;8.90;;;15.50;73.60;;;11.42;91.18;95476.22;5064460;28;20043;-46
2022/05/25 05:01:19;;;;;;;13.80;7.28;;;15.60;73.70;;;11.47;91.15;95467.41;5056593;28;20037;-48
2022/05/25 05:03:46;;;;;;;11.02;6.88;;;15.60;73.60;;;11.50;91.07;95466.84;5057034;28;20112;-46
2022/05/25 05:06:18;;;;;;;12.07;7.28;;;15.60;73.60;;;11.52;91.03;95478.06;5056803;28;20032;-46
2022/05/25 05:08:46;;;;;;;11.68;6.80;;;15.70;73.60;;;11.52;90.85;95478.06;5073432;28;20032;-46
2022/05/25 05:11:19;;;;;;;13.70;6.72;;;15.80;73.50;;;11.60;90.92;95485.50;5056634;28;20027;-47
2022/05/25 05:13:54;;;;;;;9.23;5.78;;;15.80;73.50;;;11.62;90.82;95491.34;5056612;28;20059;-46
2022/05/25 05:16:25;;;;;;;9.43;6.32;;;15.90;73.60;;;11.68;90.78;95492.13;5074403;28;20445;-46
2022/05/25 05:19:08;;;;;;;9.75;6.10;;;15.90;73.40;;;11.72;90.87;95487.84;5050782;28;20063;-46
2022/05/25 05:21:33;;;;;;;10.05;6.18;;;15.90;73.50;;;11.75;90.75;95485.44;5055640;28;20029;-47
2022/05/25 05:23:59;;;;;;;9.40;6.32;;;16.00;73.30;;;11.80;90.69;95492.63;5056676;28;20475;-45
2022/05/25 05:26:25;;;;;;;7.80;5.22;;;16.10;73.20;;;11.84;90.53;95483.00;5073045;28;20028;-49
2022/05/25 05:28:53;;;;;;;8.32;5.68;;;16.10;73.10;;;11.89;90.42;95487.56;5074191;28;20025;-50
2022/05/25 05:31:19;;;;;;;5.78;5.13;;;16.20;73.00;;;11.93;90.01;95488.59;5073989;28;20078;-46
2022/05/25 05:33:45;;;;;;;6.72;4.65;;;16.30;72.90;;;11.99;89.82;95487.50;5072507;28;20025;-49
2022/05/25 05:36:22;;;;;;;6.45;5.00;;;16.40;72.80;;;12.06;89.80;95485.31;5073283;28;20028;-46
2022/05/25 05:39:09;;;;;;;6.13;4.15;;;16.50;72.70;;;12.11;89.13;95479.16;5073353;28;20106;-47
2022/05/25 05:41:58;;;;;;;5.40;4.30;;;16.70;72.60;;;12.21;89.20;95495.91;5072500;28;20021;-47
2022/05/25 05:44:28;;;;;;;6.13;4.35;;;16.80;73.30;;;12.30;89.20;95500.66;5039849;28;20024;-46
2022/05/25 05:46:58;;;;;;;5.57;4.03;;;16.90;73.00;;;12.40;89.43;95503.25;5036352;28;20385;-45
2022/05/25 05:49:38;;;;;;;5.75;4.05;;;17.00;72.10;;;12.46;88.71;95504.81;5050419;28;20116;-47
2022/05/25 05:52:10;;;;;;;5.88;3.47;;;17.00;71.90;;;12.52;87.86;95513.59;5056199;28;20028;-48
2022/05/25 05:54:44;;;;;;;7.93;3.72;;;17.10;71.60;;;12.60;88.06;95513.81;5073869;28;20024;-46
2022/05/25 05:57:14;;;;;;;6.38;3.50;;;17.20;71.40;;;12.64;87.67;95517.53;5073939;28;20032;-46
2022/05/25 05:59:45;;;;;;;4.90;3.83;;;17.30;71.20;;;12.70;87.77;95524.44;5056175;28;20024;-49
2022/05/25 06:02:11;;;;;;;5.85;3.70;;;17.30;71.10;;;12.78;87.65;95524.91;5039750;28;20111;-45
2022/05/25 06:04:48;;;;;;;4.32;3.17;;;17.40;71.00;;;12.83;87.81;95532.88;5073538;28;20036;-46
2022/05/25 06:07:14;;;;;;;3.95;3.55;;;17.50;71.00;;;12.87;87.65;95540.06;5064713;28;20032;-47
2022/05/25 06:09:46;;;;;;;7.22;3.53;;;17.40;70.80;;;12.88;87.01;95540.84;5045734;28;20020;-45
2022/05/25 06:12:14;;;;;;;5.95;3.67;;;17.40;70.70;;;12.93;87.24;95544.28;5073306;28;20039;-46
2022/05/25 06:14:47;;;;;;;4.10;3.17;;;17.40;70.60;;;12.97;86.93;95547.19;5073622;28;20017;-45
2022/05/25 06:20:04;;;;;;;3.67;2.85;;;17.50;70.30;;;13.00;86.12;95551.19;5058682;28;20059;-46
2022/05/25 06:22:31;;;;;;;3.65;3.00;;;17.50;70.00;;;13.03;86.02;95558.66;5073108;28;20036;-46
2022/05/25 06:25:00;;;;;;;3.42;2.67;;;17.60;69.90;;;13.03;85.27;95559.44;5073169;28;20024;-46
2022/05/25 06:27:26;;;;;;;2.97;2.50;;;17.60;69.60;;;13.06;85.20;95561.56;5055216;28;20025;-49
2022/05/25 06:29:52;;;;;;;5.07;2.70;;;17.70;69.40;;;13.10;85.06;95557.25;5055959;28;20115;-48
2022/05/25 06:32:24;;;;;;;4.68;2.42;;;17.70;69.30;;;13.11;84.36;95552.72;5055790;28;20421;-46
2022/05/25 06:34:56;;;;;;;2.97;2.27;;;17.80;69.00;;;13.13;83.35;95572.75;5073742;28;20078;-48
2022/05/25 06:37:26;;;;;;;3.15;2.10;;;17.80;68.70;;;13.15;82.86;95564.44;5055826;28;20062;-45
2022/05/25 06:39:55;;;;;;;2.78;2.20;;;17.90;68.50;;;13.21;82.55;95571.34;5071217;28;20386;-50
2022/05/25 06:42:21;;;;;;;3.72;2.58;;;17.90;68.20;;;13.22;82.75;95564.91;5054266;28;20398;-46
2022/05/25 06:44:47;;;;;;;4.10;2.40;;;18.00;68.10;;;13.30;82.76;95572.34;5038143;28;20024;-53
2022/05/25 06:47:20;;;;;;;5.43;2.40;;;18.10;68.10;;;13.38;81.71;95578.97;5054621;28;20048;-53
2022/05/25 06:49:47;;;;;;;2.05;1.90;;;18.20;67.70;;;13.49;81.88;95580.47;5023289;28;20026;-48
2022/05/25 06:52:15;;;;;;;3.00;2.10;;;18.30;67.60;;;13.59;82.50;95585.72;5052980;28;20037;-46
2022/05/25 06:54:44;;;;;;;2.55;2.22;;;18.40;67.60;;;13.67;81.83;95584.31;5054199;28;20029;-50
2022/05/25 06:57:19;;;;;;;4.65;2.17;;;18.50;67.40;;;13.76;79.08;95590.63;5046863;28;20419;-46
2022/05/25 06:59:54;;;;;;;3.38;2.10;;;18.70;66.60;;;13.80;79.27;95590.88;5052381;28;20025;-48
2022/05/25 07:02:19;;;;;;;4.75;2.20;;;18.80;66.10;;;13.94;77.98;95591.75;5052895;28;20025;-45
2022/05/25 07:04:48;;;;;;;2.88;2.00;;;18.90;65.90;;;14.05;78.04;95598.59;5052215;28;20123;-46
2022/05/25 07:07:18;;;;;;;4.40;1.92;;;19.00;65.50;;;14.12;76.38;95604.41;5054772;28;20024;-46
2022/05/25 07:09:47;;;;;;;3.28;2.10;;;19.10;64.90;;;14.24;75.72;95611.25;5055234;28;20063;-46
2022/05/25 07:12:16;;;;;;;3.42;2.10;;;19.20;64.50;;;14.36;76.75;95617.00;5055793;28;20067;-48
2022/05/25 07:14:41;;;;;;;3.42;2.13;;;19.30;64.40;;;14.41;76.10;95611.56;5054954;28;20025;-50
2022/05/25 07:17:13;;;;;;;2.67;1.60;;;19.40;64.10;;;14.51;75.52;95616.03;5072796;28;20039;-48
2022/05/25 07:19:47;;;;;;;2.85;1.92;;;19.50;63.50;;;14.64;73.66;95622.56;5072420;28;20112;-48
2022/05/25 07:22:16;;;;;;;3.60;1.80;;;19.70;64.00;;;14.76;74.52;95622.91;5073336;28;20028;-49
2022/05/25 07:24:42;;;;;;;4.07;1.77;;;19.90;62.70;;;14.81;73.06;95620.16;5055164;28;20028;-47
2022/05/25 07:27:10;;;;;;;4.82;1.80;;;20.10;62.20;;;14.95;72.79;95622.94;5073111;28;20116;-47
2022/05/25 07:29:48;;;;;;;3.63;1.88;;;20.30;61.60;;;15.16;75.32;95610.00;5072376;28;20086;-48
2022/05/25 07:32:19;;;;;;;4.97;1.85;;;20.50;61.60;;;15.25;72.88;95609.03;5072834;28;20108;-50
2022/05/25 07:35:02;;;;;;;3.63;1.90;;;20.80;60.80;;;15.41;71.00;95608.78;5055493;28;20028;-49
2022/05/25 07:37:38;;;;;;;3.13;1.70;;;21.00;60.20;;;15.54;70.22;95610.69;5072768;28;20028;-46
2022/05/25 07:40:42;;;;;;;2.92;1.70;;;21.20;59.40;;;15.75;69.74;95611.16;5054821;28;20082;-46
2022/05/25 07:43:17;;;;;;;2.72;2.13;;;21.40;59.10;;;15.86;70.29;95619.84;4982797;28;20061;-48
2022/05/25 07:45:47;;;;;;;1.95;1.70;;;21.60;58.90;;;16.02;69.96;95621.16;4971608;28;20059;-51
2022/05/25 07:48:14;;;;;;;3.47;2.20;;;21.80;58.50;;;16.24;71.01;95625.84;5010305;28;20109;-48
2022/05/25 07:50:43;;;;;;;2.70;2.20;;;21.90;58.30;;;16.41;68.01;95626.00;5072041;28;20364;-47
2022/05/25 07:56:05;;;;;;;2.78;1.90;;;22.20;57.30;;;16.52;65.60;95625.81;5043167;28;20031;-48
2022/05/25 07:58:32;;;;;;;3.08;1.85;;;22.30;56.60;;;16.60;66.42;95635.84;5055475;28;20398;-47
2022/05/25 08:01:10;;;;;;;5.30;2.00;;;22.50;56.30;;;16.73;65.07;95640.41;5057743;28;20547;-47
2022/05/25 08:06:29;;;;;;;3.67;2.17;;;22.80;55.20;;;17.01;64.15;95646.53;5061090;28;20035;-53
2022/05/25 08:08:58;;;;;;;4.18;1.63;;;23.00;54.60;;;17.11;63.43;95646.34;5057470;28;20039;-51
2022/05/25 08:11:34;;;;;;;3.58;2.03;;;23.10;54.40;;;17.14;65.45;95647.59;5058160;28;20032;-47
2022/05/25 08:14:25;;;;;;;3.90;1.90;;;23.20;54.00;;;17.30;64.68;95645.38;5051330;28;20404;-50
2022/05/25 08:16:54;;;;;;;3.70;2.42;;;23.30;54.20;;;17.48;64.91;95649.75;5056364;28;20028;-47
2022/05/25 08:19:20;;;;;;;4.78;2.00;;;23.40;54.00;;;17.56;62.62;95642.84;5075039;28;20029;-47
2022/05/25 08:21:47;;;;;;;5.25;2.03;;;23.50;53.50;;;17.68;62.83;95648.47;5075688;28;20374;-46
2022/05/25 08:24:15;;;;;;;4.25;2.13;;;23.60;53.00;;;17.80;63.61;95642.56;5058162;28;20386;-48
2022/05/25 08:26:47;;;;;;;3.78;1.92;;;23.70;53.00;;;18.01;63.24;95643.59;5075435;28;20085;-48
2022/05/25 08:29:16;;;;;;;4.18;2.10;;;23.90;52.70;;;18.16;60.56;95647.78;5057248;28;20036;-46
2022/05/25 08:31:44;;;;;;;2.10;1.90;;;24.10;52.20;;;18.38;60.05;95646.91;5075041;28;20044;-46
2022/05/25 08:34:10;;;;;;;2.55;1.75;;;24.30;51.50;;;18.49;57.80;95645.53;5074890;28;20033;-46
2022/05/25 08:36:48;;;;;;;8.07;2.20;;;24.50;51.00;;;18.63;56.87;95650.00;5075284;28;20036;-47
2022/05/25 08:39:20;;;;;;;4.72;2.10;;;24.80;50.20;;;18.73;58.49;95655.13;5057037;28;20165;-47
2022/05/25 08:41:56;;;;;;;3.88;2.42;;;25.00;49.80;;;18.59;58.00;95651.75;5054699;28;20029;-46
2022/05/25 08:44:23;;;;;;;5.90;2.25;;;25.20;49.10;;;18.67;56.85;95651.75;5021017;28;20526;-47
2022/05/25 08:46:55;;;;;;;3.83;2.00;;;25.30;48.70;;;18.89;58.10;95650.06;5058532;28;20077;-48
2022/05/25 08:49:24;;;;;;;7.05;2.20;;;25.50;48.20;;;19.18;62.32;95666.47;5058125;28;20182;-46
2022/05/25 08:51:56;;;;;;;3.58;1.92;;;25.80;48.40;;;19.28;55.18;95656.47;5037668;28;20029;-46
2022/05/25 08:54:25;;;;;;;3.03;2.10;;;26.20;47.50;;;19.63;56.57;95665.34;5060129;28;20086;-47
2022/05/25 08:57:08;;;;;;;4.57;1.58;;;26.40;47.50;;;19.80;51.19;95657.22;5055447;28;20029;-47
2022/05/25 08:59:49;;;;;;;4.43;1.90;;;26.60;46.40;;;20.03;52.63;95659.72;5021115;28;20075;-49
2022/05/25 09:02:38;;;;;;;2.47;2.00;;;26.70;46.00;;;20.20;51.69;95662.34;5023987;28;20025;-47
2022/05/25 09:05:16;;;;;;;4.05;1.95;;;26.70;45.10;;;20.21;51.45;95663.97;5075226;28;20024;-51
2022/05/25 09:08:06;;;;;;;2.05;1.85;;;26.90;44.70;;;20.24;52.56;95660.56;5075275;28;20057;-47
2022/05/25 09:10:45;;;;;;;4.05;1.83;;;27.00;44.60;;;20.41;53.10;95659.72;5055737;28;20371;-51
2022/05/25 09:14:00;;;;;;;1.90;1.77;;;27.10;44.60;;;20.50;50.79;95657.78;5054397;28;20036;-47
2022/05/25 09:16:32;;;;;;;2.28;2.00;;;27.10;44.00;;;20.28;49.77;95666.16;5059649;28;20029;-51
2022/05/25 09:19:44;;;;;;;3.72;2.20;;;27.30;43.50;;;19.98;49.79;95654.47;5074385;28;20028;-48
2022/05/25 09:22:19;;;;;;;4.55;2.20;;;27.30;42.70;;;19.69;51.10;95663.28;5043741;28;20072;-47
2022/05/25 09:24:48;;;;;;;2.40;2.20;;;27.20;42.60;;;19.94;50.25;95672.47;5020643;28;20021;-48
2022/05/25 09:27:23;;;;;;;3.15;2.22;;;27.10;42.50;;;20.11;51.57;95664.28;5020646;28;20383;-51
2022/05/25 09:29:59;;;;;;;3.95;2.50;;;27.10;42.20;;;20.42;50.32;95665.94;5048441;28;20496;-47
2022/05/25 09:32:40;;;;;;;3.35;2.03;;;27.20;42.20;;;20.72;52.42;95670.25;5056473;28;20094;-49
2022/05/25 09:35:12;;;;;;;5.13;2.20;;;27.20;42.70;;;21.01;54.44;95672.16;5068565;28;20032;-50
2022/05/25 09:38:01;;;;;;;3.40;2.40;;;27.30;42.90;;;21.55;52.50;95673.38;5064350;28;20056;-52
2022/05/25 09:40:51;;;;;;;4.68;2.33;;;27.60;43.00;;;22.26;49.96;95670.44;5053519;28;20028;-48
2022/05/25 09:43:25;;;;;;;3.00;2.70;;;28.30;42.70;;;22.97;49.31;95671.97;5073708;28;20534;-47
2022/05/25 09:46:09;;;;;;;2.60;2.38;;;29.10;42.00;;;23.65;47.13;95668.47;5055818;28;20503;-47
2022/05/25 09:48:52;;;;;;;3.40;2.70;;;29.70;41.10;;;23.78;43.51;95672.78;5069454;28;20056;-47
2022/05/25 09:51:32;;;;;;;5.00;2.55;;;30.40;39.30;;;24.07;43.76;95678.97;5065595;28;20032;-47
2022/05/25 09:54:41;;;;;;;4.80;2.70;;;30.90;38.90;;;24.17;42.31;95669.50;5072819;28;20059;-48
2022/05/25 09:57:51;;;;;;;3.85;2.80;;;31.40;37.30;;;24.33;40.97;95666.78;5072060;28;20111;-49
2022/05/25 10:00:37;;;;;;;3.30;2.95;;;32.00;36.70;;;24.34;40.52;95663.69;4963779;28;20043;-51
2022/05/25 10:03:21;;;;;;;3.33;2.80;;;32.40;35.10;;;24.67;39.79;95668.81;5053629;28;20065;-50
2022/05/25 10:06:16;;;;;;;4.60;2.78;;;32.70;34.00;;;24.99;39.25;95666.03;5055354;28;20394;-51
2022/05/25 10:08:42;;;;;;;4.00;3.13;;;32.90;33.40;;;25.41;36.53;95667.34;5036218;28;20447;-51
2022/05/25 10:11:31;;;;;;;3.20;2.75;;;33.30;32.80;;;25.47;39.94;95663.97;5042666;28;20104;-52
2022/05/25 10:14:18;;;;;;;4.40;2.90;;;33.70;31.50;;;25.41;37.51;95670.06;5041472;28;20025;-56
2022/05/25 10:16:44;;;;;;;3.55;2.90;;;34.00;31.20;;;25.62;38.89;95665.06;5056519;28;20475;-48
2022/05/25 10:19:18;;;;;;;3.10;2.80;;;34.10;31.30;;;25.61;39.63;95664.28;5036487;28;20106;-48
2022/05/25 10:21:58;;;;;;;2.85;2.55;;;34.20;30.40;;;25.39;38.36;95673.19;5041067;28;20143;-49
2022/05/25 10:24:57;;;;;;;5.07;3.10;;;34.10;30.40;;;25.35;36.85;95656.75;5055555;28;20479;-53
2022/05/25 10:27:34;;;;;;;4.45;3.30;;;33.80;30.10;;;25.89;36.42;95665.22;5057200;28;20387;-49
2022/05/25 10:36:58;;;;;;;4.00;2.80;;;34.30;29.30;;;24.90;41.59;95668.16;5073865;28;20511;-48
2022/05/25 10:39:59;;;;;;;4.07;2.55;;;34.40;29.50;;;25.62;37.36;95649.47;4978767;28;20151;-48
2022/05/25 10:42:45;;;;;;;4.50;2.70;;;34.60;29.20;;;26.10;36.21;95660.16;5057516;28;20107;-48
2022/05/25 10:45:22;;;;;;;3.95;2.63;;;34.80;28.80;;;26.58;34.00;95655.16;5071884;28;20048;-48
2022/05/25 10:48:27;;;;;;;4.22;2.78;;;34.90;28.40;;;26.28;34.74;95661.25;5055848;28;20125;-52
2022/05/25 10:51:08;;;;;;;6.40;2.13;;;34.90;27.70;;;26.51;34.51;95655.03;5057831;28;20032;-50
2022/05/25 10:57:09;;;;;;;2.42;2.20;;;35.00;27.50;;;26.77;30.75;95651.53;5060892;28;20032;-49
2022/05/25 11:00:19;;;;;;;3.55;1.70;;;35.00;27.00;;;26.99;31.64;95653.44;5071929;28;20055;-51
2022/05/25 11:03:09;;;;;;;2.47;2.28;;;35.00;26.60;;;27.21;31.44;95643.63;5041460;28;20040;-53
2022/05/25 11:06:14;;;;;;;2.83;2.10;;;35.10;27.10;;;27.13;32.37;95655.56;5073548;28;20438;-51
2022/05/25 11:09:11;;;;;;;3.05;2.08;;;35.20;27.20;;;26.97;30.64;95654.94;5053217;28;20047;-49
2022/05/25 11:11:50;;;;;;;2.53;2.08;;;35.30;26.80;;;26.94;34.14;95651.00;5062424;28;20435;-50
2022/05/25 11:14:58;;;;;;;2.30;2.10;;;35.40;26.70;;;26.68;30.47;95651.78;5055163;28;20032;-52
2022/05/25 11:17:50;;;;;;;2.65;2.20;;;35.50;26.50;;;26.61;31.13;95650.91;5057106;28;20027;-50
2022/05/25 11:21:02;;;;;;;2.13;2.00;;;35.60;25.70;;;27.07;29.43;95650.78;5055505;28;20032;-49
2022/05/25 11:23:38;;;;;;;1.70;1.60;;;35.70;25.60;;;26.60;33.01;95652.81;5073559;28;20083;-51